createdAt,value
2018-01-07T00:00:46.713Z,83.34
2018-01-07T00:02:13.775Z,82.76
2018-01-07T00:03:45.047Z,82.96
2018-01-07T00:05:12.174Z,82.46
2018-01-07T00:06:35.560Z,82.59
2018-01-07T00:08:02.752Z,82.31
2018-01-07T00:09:33.930Z,82.51
2018-01-07T00:10:57.070Z,82.27
2018-01-07T00:12:28.211Z,82.66
2018-01-07T00:13:51.254Z,82.59
2018-01-07T00:15:22.556Z,82.53
2018-01-07T00:16:49.552Z,82.73
2018-01-07T00:18:16.697Z,82.12
2018-01-07T00:19:44.118Z,82.40
2018-01-07T00:21:07.294Z,82.49
2018-01-07T00:22:38.392Z,82.03
2018-01-07T00:24:05.605Z,82.34
2018-01-07T00:25:32.758Z,83.10
2018-01-07T00:26:55.995Z,83.23
2018-01-07T00:28:26.971Z,83.09
2018-01-07T00:29:54.107Z,82.20
2018-01-07T00:31:17.123Z,82.14
2018-01-07T00:32:44.302Z,82.80
2018-01-07T00:34:15.261Z,84.02
2018-01-07T00:35:38.687Z,83.04
2018-01-07T00:37:06.114Z,82.14
2018-01-07T00:38:37.079Z,82.84
2018-01-07T00:40:04.076Z,82.70
2018-01-07T00:41:27.567Z,83.05
2018-01-07T00:42:58.579Z,83.24
2018-01-07T00:44:21.735Z,83.82
2018-01-07T00:45:52.838Z,84.33
2018-01-07T00:47:16.148Z,84.02
2018-01-07T00:48:43.274Z,84.44
2018-01-07T00:50:10.604Z,83.88
2018-01-07T00:51:37.773Z,84.44
2018-01-07T00:53:05.432Z,83.65
2018-01-07T00:54:36.195Z,83.50
2018-01-07T00:56:03.463Z,83.29
2018-01-07T00:57:30.824Z,83.06
2018-01-07T00:58:57.987Z,83.08
2018-01-07T01:00:25.385Z,82.41
2018-01-07T01:01:52.329Z,83.01
2018-01-07T01:03:22.549Z,82.76
2018-01-07T01:04:46.633Z,82.60
2018-01-07T01:06:10.125Z,81.89
2018-01-07T01:07:41.397Z,81.93
2018-01-07T01:09:05.183Z,81.58
2018-01-07T01:10:31.710Z,81.44
2018-01-07T01:11:58.800Z,81.87
2018-01-07T01:13:30.021Z,80.90
2018-01-07T01:14:53.354Z,81.53
2018-01-07T01:16:24.506Z,80.99
2018-01-07T01:17:51.661Z,81.49
2018-01-07T01:19:18.706Z,81.80
2018-01-07T01:20:45.894Z,81.61
2018-01-07T01:22:09.192Z,81.86
2018-01-07T01:23:40.075Z,81.51
2018-01-07T01:25:07.520Z,81.36
2018-01-07T01:26:30.628Z,81.25
2018-01-07T01:27:57.903Z,82.01
2018-01-07T01:29:29.075Z,82.39
2018-01-07T01:30:56.287Z,81.85
2018-01-07T01:32:19.371Z,82.40
2018-01-07T01:33:46.474Z,81.69
2018-01-07T01:35:17.322Z,81.82
2018-01-07T01:36:44.401Z,81.75
2018-01-07T01:38:11.668Z,81.89
2018-01-07T01:39:38.769Z,82.02
2018-01-07T01:41:01.727Z,81.52
2018-01-07T01:42:33.058Z,81.91
2018-01-07T01:44:00.153Z,81.36
2018-01-07T01:45:27.344Z,81.12
2018-01-07T01:46:54.722Z,81.11
2018-01-07T01:48:21.627Z,80.89
2018-01-07T01:49:48.725Z,82.10
2018-01-07T01:51:15.700Z,81.33
2018-01-07T01:52:42.994Z,81.26
2018-01-07T01:54:10.007Z,82.04
2018-01-07T01:55:37.105Z,81.77
2018-01-07T01:57:00.222Z,81.72
2018-01-07T01:58:31.579Z,81.59
2018-01-07T01:59:54.706Z,81.62
2018-01-07T02:01:25.908Z,80.37
2018-01-07T02:02:52.870Z,80.92
2018-01-07T02:04:16.127Z,80.77
2018-01-07T02:05:43.286Z,80.42
2018-01-07T02:07:14.182Z,80.97
2018-01-07T02:08:41.758Z,80.64
2018-01-07T02:10:08.730Z,81.41
2018-01-07T02:11:31.802Z,81.48
2018-01-07T02:13:02.957Z,81.60
2018-01-07T02:14:26.132Z,81.31
2018-01-07T02:15:57.220Z,81.31
2018-01-07T02:17:20.452Z,81.59
2018-01-07T02:18:51.703Z,81.31
2018-01-07T02:20:18.766Z,80.56
2018-01-07T02:21:42.077Z,80.73
2018-01-07T02:23:09.257Z,80.61
2018-01-07T02:24:36.414Z,80.67
2018-01-07T02:26:03.581Z,80.69
2018-01-07T02:27:30.784Z,80.79
2018-01-07T02:29:01.981Z,80.56
2018-01-07T02:30:25.521Z,81.28
2018-01-07T02:31:52.371Z,81.65
2018-01-07T02:33:23.446Z,81.11
2018-01-07T02:34:50.586Z,81.79
2018-01-07T02:36:17.689Z,81.08
2018-01-07T02:37:44.786Z,81.23
2018-01-07T02:39:12.018Z,81.83
2018-01-07T02:40:39.305Z,81.65
2018-01-07T02:42:06.540Z,81.70
2018-01-07T02:43:29.617Z,81.71
2018-01-07T02:45:00.793Z,81.52
2018-01-07T02:46:28.097Z,81.07
2018-01-07T02:47:55.580Z,80.25
2018-01-07T02:49:18.513Z,81.40
2018-01-07T02:50:49.528Z,80.68
2018-01-07T02:52:16.629Z,80.81
2018-01-07T02:53:43.646Z,81.03
2018-01-07T02:55:07.295Z,80.91
2018-01-07T02:56:38.248Z,80.79
2018-01-07T02:58:01.420Z,80.58
2018-01-07T02:59:32.449Z,80.72
2018-01-07T03:00:59.768Z,80.70
2018-01-07T03:02:22.944Z,80.44
2018-01-07T03:03:54.052Z,80.50
2018-01-07T03:05:17.020Z,80.46
2018-01-07T03:06:44.396Z,80.98
2018-01-07T03:08:11.624Z,80.98
2018-01-07T03:09:42.505Z,81.04
2018-01-07T03:11:09.706Z,81.06
2018-01-07T03:12:32.795Z,81.25
2018-01-07T03:14:04.113Z,80.90
2018-01-07T03:15:27.327Z,81.11
2018-01-07T03:16:58.319Z,81.20
2018-01-07T03:18:21.323Z,81.08
2018-01-07T03:19:52.458Z,81.45
2018-01-07T03:21:15.766Z,81.91
2018-01-07T03:22:46.886Z,82.01
2018-01-07T03:24:13.818Z,81.79
2018-01-07T03:25:41.344Z,82.09
2018-01-07T03:27:08.269Z,82.09
2018-01-07T03:28:35.503Z,82.48
2018-01-07T03:29:58.527Z,82.41
2018-01-07T03:31:25.883Z,82.35
2018-01-07T03:32:56.700Z,82.38
2018-01-07T03:34:23.946Z,82.78
2018-01-07T03:35:47.171Z,82.64
2018-01-07T03:37:18.190Z,82.87
2018-01-07T03:38:45.190Z,82.64
2018-01-07T03:40:08.720Z,82.69
2018-01-07T03:41:39.872Z,83.08
2018-01-07T03:43:07.046Z,83.16
2018-01-07T03:44:29.970Z,83.22
2018-01-07T03:46:01.123Z,83.29
2018-01-07T03:47:24.237Z,83.26
2018-01-07T03:48:55.387Z,83.32
2018-01-07T03:50:18.419Z,83.60
2018-01-07T03:51:45.638Z,83.46
2018-01-07T03:53:12.789Z,83.73
2018-01-07T03:54:43.982Z,83.72
2018-01-07T03:56:11.294Z,83.84
2018-01-07T03:57:34.746Z,83.81
2018-01-07T03:59:05.606Z,84.10
2018-01-07T04:00:32.531Z,84.08
2018-01-07T04:01:59.777Z,84.02
2018-01-07T04:03:27.108Z,84.16
2018-01-07T04:04:54.145Z,84.21
2018-01-07T04:06:21.110Z,84.52
2018-01-07T04:07:48.153Z,84.18
2018-01-07T04:09:11.607Z,84.25
2018-01-07T04:10:38.650Z,84.25
2018-01-07T04:12:09.398Z,84.26
2018-01-07T04:13:32.707Z,84.27
2018-01-07T04:15:05.483Z,84.39
2018-01-07T04:16:31.078Z,84.24
2018-01-07T04:17:58.304Z,84.35
2018-01-07T04:19:21.461Z,84.17
2018-01-07T04:20:48.575Z,84.42
2018-01-07T04:22:15.702Z,84.51
2018-01-07T04:23:46.894Z,84.32
2018-01-07T04:25:13.803Z,84.14
2018-01-07T04:26:37.089Z,84.23
2018-01-07T04:28:04.429Z,84.21
2018-01-07T04:29:35.437Z,84.11
2018-01-07T04:30:58.520Z,84.30
2018-01-07T04:32:25.651Z,84.04
2018-01-07T04:33:56.650Z,84.00
2018-01-07T04:35:23.747Z,84.16
2018-01-07T04:36:50.885Z,83.94
2018-01-07T04:38:18.123Z,84.11
2018-01-07T04:39:45.264Z,84.19
2018-01-07T04:41:08.539Z,84.14
2018-01-07T04:42:39.231Z,83.89
2018-01-07T04:44:06.488Z,83.86
2018-01-07T04:45:33.579Z,84.05
2018-01-07T04:46:56.759Z,84.14
2018-01-07T04:48:27.725Z,83.99
2018-01-07T04:49:54.818Z,84.27
2018-01-07T04:51:21.969Z,83.99
2018-01-07T04:52:45.094Z,84.14
2018-01-07T04:54:12.320Z,84.09
2018-01-07T04:55:39.665Z,83.55
2018-01-07T04:57:07.466Z,84.03
2018-01-07T04:58:38.158Z,83.81
2018-01-07T05:00:00.805Z,84.23
2018-01-07T05:01:31.979Z,84.10
2018-01-07T05:02:59.101Z,84.00
2018-01-07T05:04:26.151Z,83.75
2018-01-07T05:05:53.132Z,83.96
2018-01-07T05:07:16.278Z,83.99
2018-01-07T05:08:47.210Z,83.70
2018-01-07T05:10:10.503Z,83.81
2018-01-07T05:11:37.302Z,83.69
2018-01-07T05:13:08.178Z,83.70
2018-01-07T05:14:31.344Z,83.94
2018-01-07T05:16:02.424Z,83.77
2018-01-07T05:17:29.608Z,83.81
2018-01-07T05:18:52.708Z,83.79
2018-01-07T05:20:23.722Z,83.73
2018-01-07T05:21:50.676Z,83.94
2018-01-07T05:23:13.784Z,83.80
2018-01-07T05:24:40.706Z,83.82
2018-01-07T05:26:08.637Z,84.00
2018-01-07T05:27:39.029Z,83.89
2018-01-07T05:29:07.285Z,83.88
2018-01-07T05:30:28.970Z,84.21
2018-01-07T05:31:56.269Z,84.35
2018-01-07T05:33:23.248Z,84.21
2018-01-07T05:34:54.489Z,84.25
2018-01-07T05:36:21.411Z,84.37
2018-01-07T05:37:44.422Z,84.54
2018-01-07T05:39:11.579Z,84.51
2018-01-07T05:40:42.553Z,84.50
2018-01-07T05:42:09.448Z,84.50
2018-01-07T05:43:37.190Z,84.73
2018-01-07T05:45:03.705Z,84.52
2018-01-07T05:46:27.006Z,84.62
2018-01-07T05:47:57.890Z,84.83
2018-01-07T05:49:25.006Z,84.96
2018-01-07T05:50:51.642Z,84.84
2018-01-07T05:52:18.701Z,84.94
2018-01-07T05:53:41.898Z,84.82
2018-01-07T05:55:09.120Z,85.04
2018-01-07T05:56:40.051Z,84.83
2018-01-07T05:58:07.344Z,84.72
2018-01-07T05:59:34.698Z,84.69
2018-01-07T06:00:57.757Z,84.89
2018-01-07T06:02:24.969Z,84.65
2018-01-07T06:03:55.949Z,84.68
2018-01-07T06:05:18.843Z,84.92
2018-01-07T06:06:49.929Z,84.98
2018-01-07T06:08:17.230Z,85.09
2018-01-07T06:09:40.470Z,85.03
2018-01-07T06:11:11.206Z,85.11
2018-01-07T06:12:38.742Z,85.10
2018-01-07T06:14:06.746Z,85.13
2018-01-07T06:15:32.486Z,85.40
2018-01-07T06:16:56.023Z,85.15
2018-01-07T06:18:26.983Z,85.22
2018-01-07T06:19:50.037Z,85.02
2018-01-07T06:21:21.328Z,84.96
2018-01-07T06:22:48.467Z,84.79
2018-01-07T06:24:15.367Z,84.58
2018-01-07T06:25:38.636Z,84.62
2018-01-07T06:27:09.679Z,84.60
2018-01-07T06:28:37.177Z,84.67
2018-01-07T06:30:03.836Z,84.55
2018-01-07T06:31:26.980Z,84.46
2018-01-07T06:32:53.788Z,84.44
2018-01-07T06:34:25.026Z,84.28
2018-01-07T06:35:52.017Z,84.40
2018-01-07T06:37:19.100Z,84.31
2018-01-07T06:38:45.893Z,84.49
2018-01-07T06:40:09.456Z,84.64
2018-01-07T06:41:36.860Z,84.68
2018-01-07T06:43:07.602Z,84.60
2018-01-07T06:44:35.546Z,84.42
2018-01-07T06:46:01.714Z,84.05
2018-01-07T06:47:28.578Z,83.98
2018-01-07T06:48:51.830Z,83.90
2018-01-07T06:50:23.008Z,83.75
2018-01-07T06:51:49.817Z,83.72
2018-01-07T06:53:12.910Z,83.66
2018-01-07T06:54:43.579Z,83.91
2018-01-07T06:56:10.683Z,84.03
2018-01-07T06:57:37.912Z,83.94
2018-01-07T06:59:05.429Z,83.98
2018-01-07T07:00:32.290Z,84.06
2018-01-07T07:01:59.384Z,83.95
2018-01-07T07:03:26.496Z,84.06
2018-01-07T07:04:49.272Z,84.15
2018-01-07T07:06:16.324Z,83.85
2018-01-07T07:07:43.575Z,84.08
2018-01-07T07:09:14.259Z,83.93
2018-01-07T07:10:41.500Z,83.66
2018-01-07T07:12:08.871Z,83.72
2018-01-07T07:13:35.845Z,83.66
2018-01-07T07:15:02.842Z,83.55
2018-01-07T07:16:30.094Z,83.81
2018-01-07T07:17:57.117Z,83.88
2018-01-07T07:19:24.261Z,84.16
2018-01-07T07:20:51.283Z,84.21
2018-01-07T07:22:14.486Z,84.21
2018-01-07T07:23:41.788Z,84.08
2018-01-07T07:25:12.343Z,84.13
2018-01-07T07:26:39.681Z,84.07
2018-01-07T07:28:02.448Z,84.15
2018-01-07T07:29:29.682Z,84.28
2018-01-07T07:31:00.688Z,84.04
2018-01-07T07:32:23.787Z,84.27
2018-01-07T07:33:55.849Z,84.00
2018-01-07T07:35:22.053Z,83.99
2018-01-07T07:36:49.084Z,84.27
2018-01-07T07:38:16.152Z,84.14
2018-01-07T07:39:43.453Z,84.27
2018-01-07T07:41:06.814Z,84.42
2018-01-07T07:42:37.762Z,84.43
2018-01-07T07:44:00.825Z,84.50
2018-01-07T07:45:31.869Z,84.64
2018-01-07T07:46:58.958Z,84.71
2018-01-07T07:48:22.153Z,84.57
2018-01-07T07:49:53.199Z,84.47
2018-01-07T07:51:20.400Z,84.73
2018-01-07T07:52:47.368Z,84.58
2018-01-07T07:54:10.502Z,84.79
2018-01-07T07:55:37.517Z,84.71
2018-01-07T07:57:04.795Z,84.63
2018-01-07T07:58:35.948Z,84.67
2018-01-07T08:00:03.053Z,84.42
2018-01-07T08:01:30.201Z,84.59
2018-01-07T08:02:53.532Z,84.47
2018-01-07T08:04:24.642Z,84.56
2018-01-07T08:05:51.476Z,84.51
2018-01-07T08:07:14.675Z,84.62
2018-01-07T08:08:45.843Z,84.72
2018-01-07T08:10:12.994Z,84.60
2018-01-07T08:11:35.973Z,84.60
2018-01-07T08:13:03.159Z,84.68
2018-01-07T08:14:34.042Z,84.82
2018-01-07T08:16:01.104Z,84.70
2018-01-07T08:17:28.315Z,84.73
2018-01-07T08:18:51.561Z,84.64
2018-01-07T08:20:22.591Z,84.69
2018-01-07T08:21:49.636Z,85.08
2018-01-07T08:23:16.761Z,84.90
2018-01-07T08:24:44.129Z,84.68
2018-01-07T08:26:11.059Z,85.06
2018-01-07T08:27:34.057Z,84.99
2018-01-07T08:29:05.280Z,84.88
2018-01-07T08:30:28.490Z,84.74
2018-01-07T08:31:55.706Z,84.66
2018-01-07T08:33:26.666Z,84.49
2018-01-07T08:34:53.653Z,84.40
2018-01-07T08:36:16.695Z,84.02
2018-01-07T08:37:43.772Z,84.01
2018-01-07T08:39:10.977Z,84.04
2018-01-07T08:40:38.358Z,83.94
2018-01-07T08:42:05.894Z,84.01
2018-01-07T08:43:32.497Z,84.26
2018-01-07T08:44:59.415Z,84.03
2018-01-07T08:46:30.517Z,84.40
2018-01-07T08:47:57.609Z,84.33
2018-01-07T08:49:20.856Z,84.41
2018-01-07T08:50:51.972Z,84.50
2018-01-07T08:52:19.317Z,84.68
2018-01-07T08:53:46.413Z,84.62
2018-01-07T08:55:09.993Z,84.51
2018-01-07T08:56:37.076Z,84.29
2018-01-07T08:58:03.954Z,84.45
2018-01-07T08:59:35.192Z,84.01
2018-01-07T09:01:01.967Z,83.47
2018-01-07T09:02:29.118Z,83.81
2018-01-07T09:03:52.366Z,83.77
2018-01-07T09:05:19.485Z,83.44
2018-01-07T09:06:50.502Z,83.54
2018-01-07T09:08:13.723Z,83.13
2018-01-07T09:09:44.808Z,83.21
2018-01-07T09:11:11.985Z,83.31
2018-01-07T09:12:35.533Z,83.28
2018-01-07T09:14:02.175Z,83.28
2018-01-07T09:15:33.087Z,83.35
2018-01-07T09:17:00.427Z,83.10
2018-01-07T09:18:27.528Z,83.32
2018-01-07T09:19:50.695Z,83.03
2018-01-07T09:21:21.853Z,83.12
2018-01-07T09:22:48.939Z,83.06
2018-01-07T09:24:15.946Z,83.09
2018-01-07T09:25:43.155Z,83.14
2018-01-07T09:27:10.297Z,83.14
2018-01-07T09:28:33.683Z,83.38
2018-01-07T09:30:05.820Z,83.67
2018-01-07T09:31:31.753Z,83.48
2018-01-07T09:32:55.047Z,83.71
2018-01-07T09:34:26.102Z,83.55
2018-01-07T09:35:49.232Z,83.04
2018-01-07T09:37:16.365Z,82.67
2018-01-07T09:38:43.455Z,82.07
2018-01-07T09:40:10.664Z,82.29
2018-01-07T09:41:41.603Z,81.96
2018-01-07T09:43:05.038Z,82.22
2018-01-07T09:44:35.718Z,82.44
2018-01-07T09:46:03.093Z,82.46
2018-01-07T09:47:26.335Z,82.52
2018-01-07T09:48:53.554Z,82.60
2018-01-07T09:50:24.642Z,82.78
2018-01-07T09:51:51.762Z,82.90
2018-01-07T09:53:18.774Z,82.65
2018-01-07T09:54:41.925Z,82.33
2018-01-07T09:56:08.976Z,82.38
2018-01-07T09:57:36.272Z,82.60
2018-01-07T09:59:03.059Z,82.68
2018-01-07T10:00:30.282Z,82.41
2018-01-07T10:02:01.453Z,82.27
2018-01-07T10:03:28.871Z,82.11
2018-01-07T10:04:56.113Z,82.00
2018-01-07T10:06:23.313Z,81.98
2018-01-07T10:07:46.402Z,82.04
2018-01-07T10:09:17.659Z,81.56
2018-01-07T10:10:44.729Z,81.72
2018-01-07T10:12:11.960Z,81.44
2018-01-07T10:13:35.401Z,81.67
2018-01-07T10:15:07.350Z,81.26
2018-01-07T10:16:33.207Z,81.02
2018-01-07T10:17:56.290Z,81.03
2018-01-07T10:19:23.440Z,80.78
2018-01-07T10:20:54.648Z,80.63
2018-01-07T10:22:21.738Z,80.41
2018-01-07T10:23:48.738Z,80.51
2018-01-07T10:25:15.903Z,80.47
2018-01-07T10:26:42.895Z,80.29
2018-01-07T10:28:09.999Z,80.46
2018-01-07T10:29:37.187Z,79.92
2018-01-07T10:31:00.284Z,79.88
2018-01-07T10:32:31.424Z,79.92
2018-01-07T10:33:58.598Z,80.00
2018-01-07T10:35:25.708Z,78.85
2018-01-07T10:36:48.896Z,79.36
2018-01-07T10:38:15.926Z,79.49
2018-01-07T10:39:47.074Z,79.23
2018-01-07T10:41:14.215Z,78.69
2018-01-07T10:42:38.158Z,78.17
2018-01-07T10:44:04.773Z,78.63
2018-01-07T10:45:31.885Z,78.20
2018-01-07T10:47:02.941Z,78.73
2018-01-07T10:48:30.241Z,78.30
2018-01-07T10:49:57.325Z,77.85
2018-01-07T10:51:24.469Z,77.58
2018-01-07T10:52:51.477Z,76.21
2018-01-07T10:54:14.698Z,77.07
2018-01-07T10:55:45.525Z,77.14
2018-01-07T10:57:09.264Z,77.48
2018-01-07T10:58:39.847Z,76.98
2018-01-07T11:00:03.186Z,76.98
2018-01-07T11:01:34.457Z,77.28
2018-01-07T11:03:01.318Z,77.53
2018-01-07T11:04:28.483Z,77.24
2018-01-07T11:05:51.833Z,77.95
2018-01-07T11:07:22.934Z,76.92
2018-01-07T11:08:50.013Z,76.75
2018-01-07T11:10:13.248Z,76.39
2018-01-07T11:11:40.367Z,76.54
2018-01-07T11:13:11.323Z,77.01
2018-01-07T11:14:34.496Z,77.57
2018-01-07T11:16:01.737Z,76.74
2018-01-07T11:17:28.714Z,76.63
2018-01-07T11:18:55.938Z,76.16
2018-01-07T11:20:27.088Z,76.24
2018-01-07T11:21:50.406Z,76.11
2018-01-07T11:23:17.569Z,75.80
2018-01-07T11:24:44.662Z,75.54
2018-01-07T11:26:11.830Z,75.11
2018-01-07T11:27:42.706Z,75.51
2018-01-07T11:29:06.014Z,76.10
2018-01-07T11:30:33.103Z,75.88
2018-01-07T11:32:04.234Z,75.16
2018-01-07T11:33:31.164Z,75.27
2018-01-07T11:34:54.337Z,75.77
2018-01-07T11:36:21.668Z,75.12
2018-01-07T11:37:48.754Z,75.01
2018-01-07T11:39:15.632Z,75.56
2018-01-07T11:40:46.772Z,75.29
2018-01-07T11:42:13.898Z,75.75
2018-01-07T11:43:41.033Z,75.55
2018-01-07T11:45:04.477Z,74.73
2018-01-07T11:46:31.557Z,75.43
2018-01-07T11:47:58.630Z,75.05
2018-01-07T11:49:29.561Z,74.85
2018-01-07T11:50:52.914Z,74.72
2018-01-07T11:52:23.905Z,75.05
2018-01-07T11:53:51.080Z,75.03
2018-01-07T11:55:14.279Z,74.09
2018-01-07T11:56:41.339Z,74.17
2018-01-07T11:58:12.588Z,74.30
2018-01-07T11:59:36.138Z,75.10
2018-01-07T12:01:06.974Z,75.32
2018-01-07T12:02:30.093Z,74.78
2018-01-07T12:03:57.503Z,74.11
2018-01-07T12:05:24.439Z,75.11
2018-01-07T12:06:55.509Z,74.79
2018-01-07T12:08:22.829Z,75.06
2018-01-07T12:09:49.822Z,75.10
2018-01-07T12:11:16.910Z,75.80
2018-01-07T12:12:44.262Z,76.03
2018-01-07T12:14:11.564Z,75.98
2018-01-07T12:15:34.898Z,75.75
2018-01-07T12:17:02.132Z,76.50
2018-01-07T12:18:32.785Z,75.83
2018-01-07T12:20:00.027Z,75.32
2018-01-07T12:21:23.357Z,75.42
2018-01-07T12:22:54.633Z,75.90
2018-01-07T12:24:21.661Z,75.75
2018-01-07T12:25:48.870Z,74.76
2018-01-07T12:27:11.763Z,75.26
2018-01-07T12:28:38.988Z,75.12
2018-01-07T12:30:10.281Z,75.78
2018-01-07T12:31:37.502Z,76.09
2018-01-07T12:33:00.392Z,75.27
2018-01-07T12:34:27.869Z,75.10
2018-01-07T12:35:58.762Z,75.26
2018-01-07T12:37:22.032Z,75.25
2018-01-07T12:38:48.989Z,75.21
2018-01-07T12:40:19.905Z,75.79
2018-01-07T12:41:47.148Z,75.17
2018-01-07T12:43:10.624Z,75.13
2018-01-07T12:44:37.657Z,74.39
2018-01-07T12:46:04.760Z,74.99
2018-01-07T12:47:31.683Z,75.62
2018-01-07T12:48:58.952Z,75.62
2018-01-07T12:50:30.024Z,75.08
2018-01-07T12:51:57.162Z,75.18
2018-01-07T12:53:20.545Z,75.00
2018-01-07T12:54:51.713Z,74.11
2018-01-07T12:56:18.917Z,74.89
2018-01-07T12:57:42.476Z,74.95
2018-01-07T12:59:09.689Z,74.87
2018-01-07T13:00:37.182Z,74.45
2018-01-07T13:02:07.839Z,74.57
2018-01-07T13:03:35.134Z,75.15
2018-01-07T13:04:58.451Z,74.69
2018-01-07T13:06:29.441Z,74.24
2018-01-07T13:07:56.763Z,75.47
2018-01-07T13:09:23.890Z,74.97
2018-01-07T13:10:46.768Z,74.61
2018-01-07T13:12:13.972Z,74.21
2018-01-07T13:13:41.448Z,73.99
2018-01-07T13:15:08.580Z,73.99
2018-01-07T13:16:35.708Z,73.70
2018-01-07T13:18:02.335Z,73.86
2018-01-07T13:19:29.711Z,73.78
2018-01-07T13:20:56.871Z,72.62
2018-01-07T13:22:23.994Z,72.31
2018-01-07T13:23:55.275Z,72.18
2018-01-07T13:25:18.238Z,71.80
2018-01-07T13:26:49.166Z,71.91
2018-01-07T13:28:16.486Z,71.61
2018-01-07T13:29:40.161Z,71.39
2018-01-07T13:31:07.041Z,70.97
2018-01-07T13:32:37.761Z,71.34
2018-01-07T13:34:14.770Z,71.10
2018-01-07T13:35:42.801Z,71.18
2018-01-07T13:37:09.098Z,70.94
2018-01-07T13:38:36.257Z,70.75
2018-01-07T13:40:03.512Z,71.18
2018-01-07T13:41:30.654Z,70.95
2018-01-07T13:42:53.846Z,71.04
2018-01-07T13:44:21.086Z,70.50
2018-01-07T13:45:52.170Z,70.56
2018-01-07T13:47:19.361Z,71.02
2018-01-07T13:48:46.358Z,70.55
2018-01-07T13:50:13.577Z,70.93
2018-01-07T13:51:37.149Z,70.72
2018-01-07T13:53:04.202Z,70.92
2018-01-07T13:54:31.635Z,70.44
2018-01-07T13:56:02.685Z,70.42
2018-01-07T13:57:30.116Z,70.72
2018-01-07T13:58:53.292Z,71.22
2018-01-07T14:00:20.541Z,71.11
2018-01-07T14:01:47.650Z,71.44
2018-01-07T14:03:18.993Z,71.39
2018-01-07T14:04:45.886Z,72.04
2018-01-07T14:06:13.164Z,72.09
2018-01-07T14:07:40.264Z,72.25
2018-01-07T14:09:03.552Z,72.67
2018-01-07T14:10:35.751Z,72.83
2018-01-07T14:12:01.767Z,73.22
2018-01-07T14:13:25.205Z,73.25
2018-01-07T14:14:56.160Z,73.71
2018-01-07T14:16:19.322Z,74.08
2018-01-07T14:17:46.227Z,74.52
2018-01-07T14:19:13.385Z,74.46
2018-01-07T14:20:44.192Z,74.65
2018-01-07T14:22:11.342Z,74.36
2018-01-07T14:23:38.273Z,74.50
2018-01-07T14:25:01.575Z,74.68
2018-01-07T14:26:32.755Z,74.64
2018-01-07T14:27:56.156Z,74.32
2018-01-07T14:29:23.139Z,74.21
2018-01-07T14:30:54.274Z,74.17
2018-01-07T14:32:17.402Z,74.78
2018-01-07T14:33:48.587Z,75.02
2018-01-07T14:35:11.624Z,75.76
2018-01-07T14:36:39.181Z,75.71
2018-01-07T14:38:10.170Z,75.85
2018-01-07T14:39:37.565Z,75.84
2018-01-07T14:41:00.576Z,75.90
2018-01-07T14:42:31.787Z,75.78
2018-01-07T14:43:59.024Z,75.84
2018-01-07T14:45:26.099Z,76.00
2018-01-07T14:46:49.284Z,76.00
2018-01-07T14:48:16.465Z,75.91
2018-01-07T14:49:43.560Z,75.78
2018-01-07T14:51:14.498Z,75.72
2018-01-07T14:52:41.839Z,75.45
2018-01-07T14:54:05.489Z,75.38
2018-01-07T14:56:59.703Z,75.26
2018-01-07T14:58:26.794Z,75.71
2018-01-07T14:59:54.217Z,76.17
2018-01-07T15:01:25.489Z,76.03
2018-01-07T15:02:48.534Z,76.53
2018-01-07T15:04:15.696Z,76.59
2018-01-07T15:05:42.781Z,76.43
2018-01-07T15:07:10.234Z,76.45
2018-01-07T15:08:41.356Z,75.80
2018-01-07T15:10:08.415Z,75.87
2018-01-07T15:11:31.391Z,76.11
2018-01-07T15:13:02.574Z,76.61
2018-01-07T15:14:29.701Z,76.54
2018-01-07T15:15:52.924Z,76.21
2018-01-07T15:17:20.025Z,76.06
2018-01-07T15:18:51.100Z,76.35
2018-01-07T15:20:14.229Z,76.28
2018-01-07T15:21:45.337Z,76.25
2018-01-07T15:23:08.655Z,76.48
2018-01-07T15:24:39.431Z,76.25
2018-01-07T15:26:06.824Z,76.66
2018-01-07T15:27:34.636Z,76.72
2018-01-07T15:28:56.865Z,77.11
2018-01-07T15:30:28.085Z,77.14
2018-01-07T15:31:55.040Z,76.99
2018-01-07T15:33:22.167Z,76.91
2018-01-07T15:34:49.234Z,76.50
2018-01-07T15:36:16.484Z,76.81
2018-01-07T15:37:43.516Z,77.34
2018-01-07T15:39:07.002Z,77.34
2018-01-07T15:40:38.284Z,77.34
2018-01-07T15:42:05.520Z,77.43
2018-01-07T15:43:32.455Z,77.64
2018-01-07T15:44:55.994Z,77.86
2018-01-07T15:46:23.044Z,77.81
2018-01-07T15:47:50.231Z,77.70
2018-01-07T15:49:21.425Z,77.72
2018-01-07T15:50:48.599Z,77.71
2018-01-07T15:52:11.881Z,77.27
2018-01-07T15:53:43.053Z,77.31
2018-01-07T15:55:06.223Z,77.30
2018-01-07T15:56:33.402Z,77.40
2018-01-07T15:58:00.438Z,77.43
2018-01-07T15:59:31.640Z,77.11
2018-01-07T16:00:55.234Z,77.18
2018-01-07T16:02:26.186Z,77.80
2018-01-07T16:03:53.192Z,78.07
2018-01-07T16:05:20.461Z,77.33
2018-01-07T16:06:43.487Z,77.31
2018-01-07T16:08:10.497Z,77.32
2018-01-07T16:09:41.551Z,76.94
2018-01-07T16:11:08.684Z,77.11
2018-01-07T16:12:35.785Z,77.30
2018-01-07T16:14:03.116Z,77.52
2018-01-07T16:15:30.013Z,77.47
2018-01-07T16:16:57.109Z,77.30
2018-01-07T16:18:24.393Z,77.57
2018-01-07T16:19:51.469Z,77.49
2018-01-07T16:21:14.628Z,77.42
2018-01-07T16:22:45.270Z,77.30
2018-01-07T16:24:08.615Z,77.60
2018-01-07T16:25:39.201Z,78.16
2018-01-07T16:27:06.553Z,78.03
2018-01-07T16:28:29.822Z,77.82
2018-01-07T16:30:01.095Z,77.63
2018-01-07T16:31:24.134Z,77.37
2018-01-07T16:32:51.565Z,77.32
2018-01-07T16:34:18.707Z,77.66
2018-01-07T16:35:45.653Z,77.39
2018-01-07T16:37:12.860Z,77.59
2018-01-07T16:38:43.789Z,77.55
2018-01-07T16:40:11.164Z,77.45
2018-01-07T16:41:38.243Z,77.73
2018-01-07T16:43:01.373Z,78.15
2018-01-07T16:44:32.471Z,78.39
2018-01-07T16:45:56.002Z,78.80
2018-01-07T16:47:26.972Z,78.24
2018-01-07T16:48:53.696Z,77.49
2018-01-07T16:50:20.882Z,77.80
2018-01-07T16:51:44.019Z,78.14
2018-01-07T16:53:11.308Z,78.50
2018-01-07T16:54:42.240Z,78.47
2018-01-07T16:56:05.515Z,77.89
2018-01-07T16:57:37.422Z,78.12
2018-01-07T16:59:03.712Z,78.26
2018-01-07T17:00:30.630Z,77.89
2018-01-07T17:01:57.811Z,77.93
2018-01-07T17:03:25.013Z,77.67
2018-01-07T17:04:52.988Z,77.94
2018-01-07T17:06:14.817Z,77.61
2018-01-07T17:07:45.882Z,77.49
2018-01-07T17:09:13.576Z,77.75
2018-01-07T17:10:41.402Z,78.37
2018-01-07T17:12:07.853Z,77.67
2018-01-07T17:13:34.645Z,77.56
2018-01-07T17:14:58.151Z,77.91
2018-01-07T17:16:28.943Z,78.28
2018-01-07T17:17:51.913Z,78.51
2018-01-07T17:19:22.730Z,78.39
2018-01-07T17:20:45.720Z,78.08
2018-01-07T17:22:12.769Z,78.01
2018-01-07T17:23:43.903Z,77.25
2018-01-07T17:25:07.560Z,76.94
2018-01-07T17:26:38.574Z,77.09
2018-01-07T17:28:01.820Z,77.16
2018-01-07T17:29:29.412Z,77.42
2018-01-07T17:30:59.861Z,77.12
2018-01-07T17:32:23.048Z,77.23
2018-01-07T17:33:54.275Z,77.61
2018-01-07T17:35:21.303Z,77.50
2018-01-07T17:36:44.486Z,77.50
2018-01-07T17:38:11.412Z,77.82
2018-01-07T17:39:42.593Z,77.84
2018-01-07T17:41:10.141Z,77.77
2018-01-07T17:42:32.332Z,77.56
2018-01-07T17:44:03.506Z,77.17
2018-01-07T17:45:27.142Z,76.96
2018-01-07T17:46:53.941Z,76.82
2018-01-07T17:48:24.986Z,76.99
2018-01-07T17:49:51.900Z,77.21
2018-01-07T17:51:14.993Z,77.16
2018-01-07T17:52:45.867Z,77.11
2018-01-07T17:54:13.028Z,77.05
2018-01-07T17:55:41.184Z,76.84
2018-01-07T17:57:03.347Z,77.05
2018-01-07T17:58:34.799Z,77.06
2018-01-07T18:00:01.423Z,76.58
2018-01-07T18:01:28.546Z,76.56
2018-01-07T18:02:51.741Z,76.73
2018-01-07T18:04:19.014Z,76.83
2018-01-07T18:05:49.874Z,77.63
2018-01-07T18:07:16.949Z,78.27
2018-01-07T18:08:40.757Z,78.46
2018-01-07T18:10:08.375Z,78.78
2018-01-07T18:11:35.345Z,79.09
2018-01-07T18:13:06.498Z,79.15
2018-01-07T18:14:32.666Z,79.14
2018-01-07T18:15:59.910Z,78.19
2018-01-07T18:17:27.349Z,78.10
2018-01-07T18:18:50.190Z,78.23
2018-01-07T18:20:17.238Z,78.19
2018-01-07T18:21:48.288Z,78.57
2018-01-07T18:23:15.287Z,78.50
2018-01-07T18:24:39.400Z,78.50
2018-01-07T18:26:06.345Z,78.49
2018-01-07T18:27:32.620Z,78.67
2018-01-07T18:28:59.878Z,78.83
2018-01-07T18:30:27.464Z,78.75
2018-01-07T18:31:58.531Z,78.43
2018-01-07T18:33:25.531Z,78.34
2018-01-07T18:34:48.819Z,78.45
2018-01-07T18:36:19.661Z,78.20
2018-01-07T18:37:46.456Z,78.21
2018-01-07T18:39:13.702Z,78.28
2018-01-07T18:40:37.975Z,78.24
2018-01-07T18:42:07.973Z,78.19
2018-01-07T18:43:35.734Z,78.69